Time;durP1;ratioP1;P1;durP2;ratioP2;P2;SDS_P1;SDS_P2;PMS_P1;PMS_P2;Temp;Humidity;BMP_temperature;BMP_pressure;BME280_temperature;BME280_humidity;BME280_pressure;Samples;Min_cycle;Max_cycle;Signal;HPM_P1;HPM_P2
2023/01/07 00:01:32;;;;;;;11.52;6.70;;;-19.60;92.70;;;;;;5071270;28;20025;-77
2023/01/07 00:03:59;;;;;;;4.25;3.88;;;-19.60;92.70;;;;;;5049803;28;20164;-78
2023/01/07 00:06:28;;;;;;;8.15;3.75;;;-19.60;92.60;;;;;;5066456;28;20369;-79
2023/01/07 00:08:55;;;;;;;23.05;8.88;;;-19.60;92.70;;;;;;5075026;28;20051;-78
2023/01/07 00:11:33;;;;;;;12.70;8.57;;;-19.60;92.70;;;;;;5075119;28;20507;-78
2023/01/07 00:14:00;;;;;;;16.05;8.40;;;-19.60;92.70;;;;;;5074652;28;20020;-79
2023/01/07 00:16:29;;;;;;;11.30;6.13;;;-19.60;92.60;;;;;;5074527;28;20043;-77
2023/01/07 00:18:57;;;;;;;14.93;7.60;;;-19.60;92.60;;;;;;5048894;28;20028;-77
2023/01/07 00:21:25;;;;;;;19.02;6.93;;;-19.60;92.50;;;;;;5066167;28;20607;-78
2023/01/07 00:24:02;;;;;;;9.63;7.97;;;-19.70;92.50;;;;;;5068685;28;20036;-78
2023/01/07 00:26:30;;;;;;;18.02;8.52;;;-19.70;92.50;;;;;;5071944;28;20040;-80
2023/01/07 00:28:57;;;;;;;12.27;7.68;;;-19.70;92.40;;;;;;5074779;28;20036;-80
2023/01/07 00:31:25;;;;;;;19.55;10.05;;;-19.70;92.50;;;;;;5083832;28;20031;-80
2023/01/07 00:36:22;;;;;;;18.92;9.43;;;-19.70;92.50;;;;;;5090875;28;20028;-79
2023/01/07 00:38:53;;;;;;;17.10;9.73;;;-19.70;92.60;;;;;;5077101;28;20085;-77
2023/01/07 00:41:19;;;;;;;11.02;5.97;;;-19.70;92.50;;;;;;5094570;28;20161;-80
2023/01/07 00:43:45;;;;;;;16.80;6.30;;;-19.70;92.50;;;;;;5084750;28;20459;-78
2023/01/07 00:46:13;;;;;;;9.20;4.43;;;-19.70;92.40;;;;;;5091905;28;20059;-79
2023/01/07 00:48:39;;;;;;;17.27;6.30;;;-19.70;92.40;;;;;;5094848;28;20028;-79
2023/01/07 00:51:05;;;;;;;19.13;9.07;;;-19.70;92.30;;;;;;5094436;28;20024;-79
2023/01/07 00:53:31;;;;;;;9.48;4.72;;;-19.80;92.30;;;;;;5076139;28;20469;-81
2023/01/07 00:55:57;;;;;;;7.65;4.82;;;-19.80;92.30;;;;;;5094194;28;20115;-81
2023/01/07 00:58:24;;;;;;;13.63;8.90;;;-19.80;92.30;;;;;;5094151;28;20028;-78
2023/01/07 01:00:55;;;;;;;12.27;9.20;;;-19.80;92.40;;;;;;5092455;28;20016;-80
2023/01/07 01:03:21;;;;;;;8.20;5.82;;;-19.80;92.40;;;;;;5092408;28;20054;-78
2023/01/07 01:05:47;;;;;;;10.70;5.57;;;-19.80;92.30;;;;;;5094226;28;20055;-78
2023/01/07 01:08:13;;;;;;;14.27;7.82;;;-19.80;92.30;;;;;;5093915;28;20028;-79
2023/01/07 01:10:38;;;;;;;21.48;11.32;;;-19.80;92.30;;;;;;5093933;28;20058;-77
2023/01/07 01:13:04;;;;;;;13.50;6.13;;;-19.80;92.30;;;;;;5086433;28;20021;-78
2023/01/07 01:15:30;;;;;;;14.88;6.60;;;-19.80;92.30;;;;;;5092977;28;20028;-78
2023/01/07 01:17:56;;;;;;;20.20;8.32;;;-19.70;92.30;;;;;;5093364;28;20024;-78
2023/01/07 01:20:22;;;;;;;16.33;10.32;;;-19.80;92.30;;;;;;5093336;28;20031;-78
2023/01/07 01:22:48;;;;;;;20.00;11.63;;;-19.70;92.30;;;;;;5072888;28;20028;-79
2023/01/07 01:25:14;;;;;;;18.42;10.73;;;-19.70;92.30;;;;;;5093517;28;20044;-80
2023/01/07 01:27:40;;;;;;;9.73;7.63;;;-19.70;92.30;;;;;;5094007;28;20469;-79
2023/01/07 01:30:07;;;;;;;13.18;8.82;;;-19.70;92.30;;;;;;5075733;28;20066;-79
2023/01/07 01:32:32;;;;;;;10.93;6.13;;;-19.70;92.30;;;;;;5093798;28;20511;-79
2023/01/07 01:34:58;;;;;;;20.33;9.85;;;-19.70;92.30;;;;;;5093577;28;20020;-78
2023/01/07 01:37:24;;;;;;;10.27;6.63;;;-19.70;92.30;;;;;;5079476;28;20028;-77
2023/01/07 01:39:50;;;;;;;16.35;6.43;;;-19.70;92.30;;;;;;5093262;28;20165;-77
2023/01/07 01:42:21;;;;;;;14.63;9.23;;;-19.70;92.20;;;;;;5093384;28;20389;-79
2023/01/07 01:44:54;;;;;;;16.98;8.00;;;-19.80;92.20;;;;;;5078959;28;20043;-80
2023/01/07 01:47:35;;;;;;;15.00;9.45;;;-19.70;92.30;;;;;;5093602;28;20021;-80
2023/01/07 01:50:10;;;;;;;7.13;4.30;;;-19.80;92.30;;;;;;5081775;28;20046;-78
2023/01/07 01:52:50;;;;;;;16.23;6.55;;;-19.80;92.30;;;;;;5093045;28;20111;-78
2023/01/07 01:55:22;;;;;;;11.93;7.10;;;-19.80;92.30;;;;;;5063618;28;20068;-77
2023/01/07 01:57:52;;;;;;;14.57;5.30;;;-19.70;92.40;;;;;;5066630;28;20020;-77
2023/01/07 02:00:18;;;;;;;13.60;7.50;;;-19.80;92.40;;;;;;5061515;28;20074;-78
2023/01/07 02:02:51;;;;;;;12.90;7.90;;;-19.80;92.40;;;;;;5072882;28;20028;-79
2023/01/07 02:05:17;;;;;;;11.73;7.57;;;-19.80;92.40;;;;;;5059432;28;20049;-79
2023/01/07 02:07:43;;;;;;;14.55;6.25;;;-19.80;92.40;;;;;;5087076;28;20029;-79
2023/01/07 02:10:17;;;;;;;4.90;3.65;;;-19.80;92.50;;;;;;5097378;28;20389;-77
2023/01/07 02:13:28;;;;;;;7.63;3.35;;;-19.80;92.50;;;;;;5092112;28;20024;-78
2023/01/07 02:16:17;;;;;;;8.60;3.63;;;-19.80;92.50;;;;;;5083544;28;20031;-79
2023/01/07 02:19:09;;;;;;;5.97;3.90;;;-19.80;92.60;;;;;;5092792;28;20377;-77
2023/01/07 02:21:45;;;;;;;6.90;3.60;;;-19.80;92.70;;;;;;5088340;28;20046;-79
2023/01/07 02:24:17;;;;;;;;;;;-19.70;92.70;;;;;;5092865;28;20034;-77
2023/01/07 02:26:49;;;;;;;11.93;6.28;;;-19.70;92.80;;;;;;5092516;28;19904;-79
2023/01/07 02:29:39;;;;;;;15.57;5.50;;;-19.70;92.70;;;;;;5091895;28;20481;-78
2023/01/07 02:32:43;;;;;;;13.10;6.88;;;-19.60;92.70;;;;;;5078023;28;20615;-78
2023/01/07 02:35:43;;;;;;;8.35;5.00;;;-19.60;92.70;;;;;;5092043;28;20066;-78
2023/01/07 02:38:15;;;;;;;15.25;6.90;;;-19.60;92.80;;;;;;5092436;28;20027;-80
2023/01/07 02:40:55;;;;;;;15.02;6.10;;;-19.60;92.70;;;;;;5092435;28;20079;-78
2023/01/07 02:43:45;;;;;;;14.77;6.18;;;-19.60;92.70;;;;;;5092248;28;20024;-79
2023/01/07 02:46:28;;;;;;;20.70;10.20;;;-19.60;92.70;;;;;;5080214;28;20039;-79
2023/01/07 02:48:56;;;;;;;15.18;9.55;;;-19.60;92.50;;;;;;5092198;28;20488;-79
2023/01/07 02:51:34;;;;;;;16.30;8.82;;;-19.60;92.50;;;;;;5092679;28;20358;-79
2023/01/07 02:54:01;;;;;;;11.52;6.63;;;-19.60;92.50;;;;;;5092127;28;20054;-81
2023/01/07 02:56:54;;;;;;;10.75;7.80;;;-19.60;92.50;;;;;;5092691;28;20042;-79
2023/01/07 02:59:46;;;;;;;10.57;6.18;;;-19.70;92.40;;;;;;5091869;28;20031;-80
2023/01/07 03:02:44;;;;;;;8.45;4.85;;;-19.60;92.50;;;;;;5073984;28;20059;-79
2023/01/07 03:05:27;;;;;;;10.38;6.57;;;-19.60;92.50;;;;;;5060886;28;20051;-79
2023/01/07 03:08:44;;;;;;;8.05;4.65;;;-19.60;92.60;;;;;;5069210;28;20013;-78
2023/01/07 03:11:11;;;;;;;2.22;2.08;;;-19.60;92.40;;;;;;5010114;28;20081;-78
2023/01/07 03:13:49;;;;;;;5.72;5.07;;;-19.70;92.20;;;;;;5063680;28;20029;-78
2023/01/07 03:16:23;;;;;;;7.35;4.40;;;-19.70;92.20;;;;;;5069112;28;20162;-79
2023/01/07 03:18:58;;;;;;;6.20;3.88;;;-19.70;92.20;;;;;;5072851;28;20028;-77
2023/01/07 03:21:26;;;;;;;14.38;9.15;;;-19.70;92.20;;;;;;5071473;28;20036;-78
2023/01/07 03:23:55;;;;;;;5.60;4.95;;;-19.70;92.10;;;;;;5071700;28;20044;-78
2023/01/07 03:26:25;;;;;;;10.68;5.50;;;-19.70;92.00;;;;;;5071553;28;20017;-79
2023/01/07 03:28:53;;;;;;;10.10;5.90;;;-19.80;91.90;;;;;;5071579;28;20017;-79
2023/01/07 03:31:20;;;;;;;13.57;5.80;;;-19.80;91.80;;;;;;5053482;28;20421;-78
2023/01/07 03:34:06;;;;;;;10.15;4.80;;;-19.80;91.70;;;;;;5071440;28;20023;-79
2023/01/07 03:36:37;;;;;;;7.57;3.83;;;-19.80;91.80;;;;;;5071418;28;20025;-78
2023/01/07 03:39:06;;;;;;;12.93;8.57;;;-19.80;91.80;;;;;;5053327;28;20024;-78
2023/01/07 03:44:16;;;;;;;13.18;7.88;;;-19.90;91.50;;;;;;5075335;28;20086;-78
2023/01/07 03:46:43;;;;;;;16.30;9.68;;;-20.00;91.50;;;;;;5075907;28;20462;-79
2023/01/07 03:49:08;;;;;;;14.63;8.82;;;-20.00;91.60;;;;;;5076696;28;20153;-77
2023/01/07 03:51:37;;;;;;;18.08;8.02;;;-20.00;91.60;;;;;;5077579;28;20465;-77
2023/01/07 03:54:04;;;;;;;21.20;9.80;;;-20.00;91.70;;;;;;5075455;28;20055;-78
2023/01/07 03:56:29;;;;;;;7.00;4.78;;;-20.00;91.70;;;;;;5077021;28;20195;-79
2023/01/07 03:58:55;;;;;;;7.35;4.82;;;-19.90;91.80;;;;;;5076702;28;20100;-79
2023/01/07 04:01:21;;;;;;;11.93;6.40;;;-19.90;91.80;;;;;;5074819;28;20074;-78
2023/01/07 04:03:47;;;;;;;7.22;4.65;;;-19.90;91.90;;;;;;5074324;28;20036;-79
2023/01/07 04:06:12;;;;;;;12.15;6.18;;;-19.90;91.80;;;;;;5042642;28;20117;-79
2023/01/07 04:08:38;;;;;;;11.73;5.70;;;-19.90;91.70;;;;;;5074844;28;20473;-77
2023/01/07 04:11:04;;;;;;;14.20;6.50;;;-19.90;91.60;;;;;;5074593;28;20086;-79
2023/01/07 04:13:30;;;;;;;16.52;7.60;;;-19.90;91.60;;;;;;5067363;28;20068;-79
2023/01/07 04:15:56;;;;;;;9.90;4.78;;;-19.90;91.60;;;;;;5050448;28;20107;-77
2023/01/07 04:18:21;;;;;;;6.55;4.60;;;-19.90;91.60;;;;;;5074292;28;20637;-78
2023/01/07 04:20:48;;;;;;;13.52;7.28;;;-19.90;91.70;;;;;;5074677;28;20071;-80
2023/01/07 04:23:17;;;;;;;12.43;5.30;;;-19.90;91.80;;;;;;5074853;28;20116;-78
2023/01/07 04:25:46;;;;;;;12.35;5.70;;;-19.80;91.90;;;;;;5074577;28;20040;-76
2023/01/07 04:28:12;;;;;;;13.35;6.13;;;-19.80;91.90;;;;;;5074349;28;20021;-77
2023/01/07 04:30:37;;;;;;;14.02;6.22;;;-19.80;91.90;;;;;;5074287;28;20119;-77
2023/01/07 04:33:04;;;;;;;8.73;3.50;;;-19.80;91.90;;;;;;5074166;28;20169;-79
2023/01/07 04:35:31;;;;;;;4.68;4.07;;;-19.80;91.70;;;;;;5074356;28;20024;-78
2023/01/07 04:37:57;;;;;;;11.25;5.43;;;-19.80;91.40;;;;;;5074122;28;20149;-78
2023/01/07 04:40:23;;;;;;;6.53;4.25;;;-19.80;91.40;;;;;;5074397;28;20024;-78
2023/01/07 04:42:49;;;;;;;7.85;4.10;;;-19.80;91.40;;;;;;5057115;28;20036;-77
2023/01/07 04:45:15;;;;;;;10.10;4.47;;;-19.90;91.30;;;;;;5075472;28;20028;-78
2023/01/07 04:47:41;;;;;;;7.68;3.05;;;-19.80;91.40;;;;;;5074401;28;20543;-80
2023/01/07 04:50:07;;;;;;;8.10;4.82;;;-19.90;91.50;;;;;;5074169;28;20020;-78
2023/01/07 04:52:33;;;;;;;8.60;5.65;;;-19.80;91.60;;;;;;5073597;28;20029;-78
2023/01/07 04:54:59;;;;;;;6.40;3.42;;;-19.80;91.50;;;;;;5074048;28;20032;-78
2023/01/07 04:57:25;;;;;;;6.25;3.28;;;-19.80;91.40;;;;;;5073824;28;20033;-76
2023/01/07 04:59:51;;;;;;;10.70;3.30;;;-19.80;91.50;;;;;;5073960;28;20028;-77
2023/01/07 05:02:17;;;;;;;2.53;1.88;;;-19.80;91.50;;;;;;5055680;28;20079;-78
2023/01/07 05:04:43;;;;;;;6.97;5.00;;;-19.80;91.40;;;;;;5068243;28;20045;-77
2023/01/07 05:07:09;;;;;;;15.68;5.53;;;-19.80;91.30;;;;;;5063780;28;20035;-77
2023/01/07 05:09:35;;;;;;;6.75;4.38;;;-19.90;91.20;;;;;;5073639;28;20020;-78
2023/01/07 05:12:00;;;;;;;6.75;3.45;;;-19.80;91.30;;;;;;5073756;28;20029;-79
2023/01/07 05:14:26;;;;;;;5.55;3.90;;;-19.90;91.00;;;;;;5059690;28;20128;-79
2023/01/07 05:16:52;;;;;;;7.55;4.20;;;-19.90;90.80;;;;;;5073385;28;20475;-76
2023/01/07 05:19:18;;;;;;;6.30;3.90;;;-20.00;90.80;;;;;;5073745;28;20029;-80
2023/01/07 05:21:44;;;;;;;4.60;3.50;;;-20.00;90.90;;;;;;5055602;28;20126;-79
2023/01/07 05:24:09;;;;;;;5.60;3.70;;;-20.00;90.90;;;;;;5073535;28;20032;-79
2023/01/07 05:26:35;;;;;;;2.00;1.90;;;-20.00;90.90;;;;;;5073386;28;20429;-79
2023/01/07 05:29:01;;;;;;;12.70;5.13;;;-20.00;90.90;;;;;;5075697;28;20033;-78
2023/01/07 05:31:27;;;;;;;4.28;3.85;;;-20.00;90.90;;;;;;5073181;28;20081;-79
2023/01/07 05:33:53;;;;;;;8.57;5.10;;;-20.00;90.90;;;;;;5073327;28;20384;-79
2023/01/07 05:36:18;;;;;;;5.05;3.47;;;-20.00;90.80;;;;;;5073103;28;20517;-79
2023/01/07 05:38:44;;;;;;;18.48;6.25;;;-20.00;90.80;;;;;;5073085;28;20035;-79
2023/01/07 05:41:10;;;;;;;10.30;5.63;;;-20.00;90.70;;;;;;5073042;28;20082;-80
2023/01/07 05:43:36;;;;;;;11.15;3.53;;;-20.10;90.70;;;;;;5072789;28;20042;-78
2023/01/07 05:46:02;;;;;;;10.32;6.78;;;-20.10;90.70;;;;;;5073322;28;20048;-78
2023/01/07 05:48:28;;;;;;;9.52;5.95;;;-20.10;90.70;;;;;;5072914;28;20100;-78
2023/01/07 05:50:54;;;;;;;9.10;3.35;;;-20.10;90.60;;;;;;5073595;28;20036;-79
2023/01/07 05:53:20;;;;;;;7.20;5.32;;;-20.20;90.50;;;;;;5075341;28;20056;-77
2023/01/07 05:55:45;;;;;;;8.25;5.05;;;-20.20;90.50;;;;;;5075359;28;20020;-79
2023/01/07 05:58:11;;;;;;;4.03;2.95;;;-20.30;90.50;;;;;;5072738;28;20032;-78
2023/01/07 06:00:37;;;;;;;10.93;5.72;;;-20.30;90.50;;;;;;5072469;28;20039;-78
2023/01/07 06:03:04;;;;;;;8.77;4.32;;;-20.30;90.50;;;;;;5055051;28;20036;-81
2023/01/07 06:05:30;;;;;;;8.32;5.85;;;-20.30;90.40;;;;;;5060900;28;20047;-77
2023/01/07 06:07:56;;;;;;;8.27;4.90;;;-20.40;90.40;;;;;;5071918;28;20016;-79
2023/01/07 06:10:22;;;;;;;8.00;3.25;;;-20.30;90.40;;;;;;5075866;28;20043;-78
2023/01/07 06:12:47;;;;;;;9.82;4.78;;;-20.40;90.40;;;;;;5071015;28;20074;-79
2023/01/07 06:15:13;;;;;;;4.35;3.47;;;-20.40;90.40;;;;;;5067470;28;20044;-78
2023/01/07 06:17:39;;;;;;;6.55;3.70;;;-20.30;90.50;;;;;;5072440;28;20082;-79
2023/01/07 06:20:05;;;;;;;7.18;4.50;;;-20.30;90.60;;;;;;5072339;28;20021;-79
2023/01/07 06:22:31;;;;;;;9.90;5.60;;;-20.30;90.60;;;;;;5064498;28;20025;-79
2023/01/07 06:24:57;;;;;;;9.40;4.25;;;-20.30;90.70;;;;;;5072311;28;20047;-79
2023/01/07 06:27:23;;;;;;;7.80;3.75;;;-20.30;90.60;;;;;;5072234;28;20146;-79
2023/01/07 06:29:48;;;;;;;11.15;5.68;;;-20.20;90.70;;;;;;5071986;28;20068;-77
2023/01/07 06:32:17;;;;;;;5.40;3.72;;;-20.20;90.60;;;;;;5072021;28;20020;-79
2023/01/07 06:34:42;;;;;;;10.07;5.43;;;-20.20;90.60;;;;;;5072157;28;20040;-78
2023/01/07 06:37:09;;;;;;;15.10;6.32;;;-20.20;90.90;;;;;;5054389;28;20469;-79
2023/01/07 06:39:35;;;;;;;7.40;3.13;;;-20.20;90.70;;;;;;5072570;28;20037;-77
2023/01/07 06:42:01;;;;;;;4.05;3.55;;;-20.10;90.80;;;;;;5072167;28;20016;-78
2023/01/07 06:44:27;;;;;;;11.00;2.67;;;-20.00;90.90;;;;;;5072014;28;20438;-79
2023/01/07 06:46:52;;;;;;;15.25;6.60;;;-20.00;90.90;;;;;;5071933;28;20536;-77
2023/01/07 06:49:21;;;;;;;14.43;4.53;;;-20.00;90.90;;;;;;5072261;28;20046;-79
2023/01/07 06:51:47;;;;;;;10.85;4.45;;;-20.00;90.70;;;;;;5072067;28;20052;-79
2023/01/07 06:54:12;;;;;;;4.70;3.00;;;-20.00;90.50;;;;;;5053949;28;20109;-78
2023/01/07 06:56:38;;;;;;;9.60;5.55;;;-20.00;90.50;;;;;;5071982;28;20020;-78
2023/01/07 06:59:04;;;;;;;2.30;2.10;;;-20.00;90.50;;;;;;5071748;28;20033;-78
2023/01/07 07:01:30;;;;;;;5.93;4.82;;;-20.00;90.50;;;;;;5071663;28;20025;-77
2023/01/07 07:03:56;;;;;;;9.63;4.00;;;-20.00;90.50;;;;;;5052812;28;20037;-78
2023/01/07 07:06:21;;;;;;;5.00;3.13;;;-19.90;90.50;;;;;;5057405;28;20024;-80
2023/01/07 07:08:47;;;;;;;8.77;4.15;;;-19.90;90.50;;;;;;5073236;28;20489;-79
2023/01/07 07:11:13;;;;;;;11.18;5.50;;;-19.80;90.50;;;;;;5073164;28;20056;-78
2023/01/07 07:13:39;;;;;;;12.52;5.13;;;-19.80;90.70;;;;;;5062802;28;20387;-79
2023/01/07 07:16:07;;;;;;;9.80;3.70;;;-19.70;90.70;;;;;;5066341;28;20057;-78
2023/01/07 07:18:33;;;;;;;9.73;5.43;;;-19.60;90.70;;;;;;5053636;28;20363;-78
2023/01/07 07:20:59;;;;;;;10.45;5.30;;;-19.60;90.60;;;;;;5053522;28;20108;-79
2023/01/07 07:24:05;;;;;;;7.85;3.70;;;-19.60;90.50;;;;;;5053508;28;20124;-80
2023/01/07 07:27:08;;;;;;;3.80;3.28;;;-19.60;90.40;;;;;;5071345;28;20078;-78
2023/01/07 07:30:11;;;;;;;7.40;3.28;;;-19.50;90.40;;;;;;5071649;28;20366;-78
2023/01/07 07:32:56;;;;;;;6.72;2.97;;;-19.50;90.40;;;;;;5062481;28;20028;-79
2023/01/07 07:35:59;;;;;;;6.35;2.40;;;-19.50;90.20;;;;;;5072161;28;20020;-78
2023/01/07 07:38:46;;;;;;;6.22;3.35;;;-19.50;90.10;;;;;;5071458;28;20038;-79
2023/01/07 07:41:31;;;;;;;8.15;6.75;;;-19.50;90.00;;;;;;5053313;28;20028;-79
2023/01/07 07:44:34;;;;;;;9.57;4.10;;;-19.50;90.00;;;;;;5057315;28;20508;-79
2023/01/07 07:47:18;;;;;;;7.30;4.07;;;-19.40;90.10;;;;;;5071629;28;20017;-80
2023/01/07 07:50:22;;;;;;;7.35;2.90;;;-19.40;90.00;;;;;;5072995;28;20063;-78
2023/01/07 07:52:47;;;;;;;11.32;3.42;;;-19.40;89.80;;;;;;5062097;28;20107;-78
2023/01/07 07:55:52;;;;;;;7.07;3.00;;;-19.40;89.50;;;;;;5071097;28;20115;-79
2023/01/07 07:58:55;;;;;;;6.78;4.25;;;-19.40;89.70;;;;;;5071210;28;20108;-80
2023/01/07 08:01:58;;;;;;;5.28;2.22;;;-19.20;90.10;;;;;;5060510;28;20033;-79
2023/01/07 08:04:24;;;;;;;4.32;3.10;;;-19.10;90.10;;;;;;5042461;28;20043;-79
2023/01/07 08:07:27;;;;;;;8.02;4.53;;;-19.00;90.00;;;;;;5079954;28;20024;-80
2023/01/07 08:10:30;;;;;;;8.35;5.03;;;-18.90;89.80;;;;;;5091152;28;20016;-79
2023/01/07 08:13:34;;;;;;;9.35;6.57;;;-18.50;90.30;;;;;;5090537;28;20495;-80
2023/01/07 08:16:37;;;;;;;6.85;4.03;;;-17.70;90.30;;;;;;5091127;28;20020;-80
2023/01/07 08:19:21;;;;;;;11.07;3.85;;;-17.00;89.90;;;;;;5082252;28;20077;-79
2023/01/07 08:22:08;;;;;;;9.40;4.82;;;-16.40;89.50;;;;;;5090890;28;20403;-80
2023/01/07 08:24:52;;;;;;;5.35;3.20;;;-16.40;86.30;;;;;;5091812;28;20032;-79
2023/01/07 08:27:55;;;;;;;9.13;5.18;;;-16.40;83.50;;;;;;5081631;28;20012;-80
2023/01/07 08:30:59;;;;;;;12.65;4.15;;;-16.10;85.40;;;;;;5057063;28;20024;-80
2023/01/07 08:34:02;;;;;;;9.73;5.53;;;-15.90;83.90;;;;;;5073964;28;20110;-80
2023/01/07 08:37:08;;;;;;;8.55;4.10;;;-15.80;83.40;;;;;;5094354;28;20055;-78
2023/01/07 08:39:35;;;;;;;;;;;-15.60;82.90;;;;;;5076967;28;20023;-80
2023/01/07 08:42:03;;;;;;;8.07;3.88;;;-15.30;84.00;;;;;;5093199;28;19924;-79
2023/01/07 08:45:07;;;;;;;10.13;3.90;;;-15.10;83.70;;;;;;5093976;28;20039;-78
2023/01/07 08:48:10;;;;;;;7.32;4.78;;;-15.10;80.20;;;;;;5061106;28;20088;-79
2023/01/07 08:51:13;;;;;;;8.18;3.10;;;-15.40;77.40;;;;;;5097163;28;20095;-79
2023/01/07 08:54:16;;;;;;;5.85;3.47;;;-15.80;77.20;;;;;;5075669;28;20115;-81
2023/01/07 08:57:01;;;;;;;6.60;3.85;;;-16.20;77.20;;;;;;5075364;28;20025;-80
2023/01/07 09:00:04;;;;;;;13.73;4.65;;;-16.20;78.80;;;;;;5091995;28;20145;-79
2023/01/07 09:03:08;;;;;;;9.98;4.95;;;-16.40;78.10;;;;;;5096523;28;20471;-78
2023/01/07 09:06:11;;;;;;;6.35;3.13;;;-16.60;77.50;;;;;;5066297;28;20045;-78
2023/01/07 09:09:01;;;;;;;13.02;5.30;;;-16.50;78.30;;;;;;5063185;28;20032;-80
2023/01/07 09:11:45;;;;;;;9.52;3.80;;;-16.40;78.70;;;;;;5073578;28;20507;-79
2023/01/07 09:14:30;;;;;;;9.15;3.88;;;-16.10;79.80;;;;;;5042498;28;20021;-82
2023/01/07 09:17:33;;;;;;;10.57;4.53;;;-16.00;78.80;;;;;;5061251;28;20016;-80
2023/01/07 09:20:36;;;;;;;12.60;5.15;;;-15.80;79.50;;;;;;5055599;28;20031;-79
2023/01/07 09:23:39;;;;;;;9.38;4.07;;;-15.20;80.00;;;;;;5073479;28;20493;-80
2023/01/07 09:26:42;;;;;;;9.70;3.63;;;-14.90;78.20;;;;;;5075965;28;20032;-80
2023/01/07 09:29:46;;;;;;;9.10;4.45;;;-14.80;75.80;;;;;;5073131;28;20021;-78
2023/01/07 09:32:30;;;;;;;6.50;3.55;;;-14.80;76.20;;;;;;5062822;28;20017;-85
2023/01/07 09:35:14;;;;;;;6.10;5.07;;;-14.80;75.30;;;;;;5073256;28;20074;-79
2023/01/07 09:37:59;;;;;;;7.97;4.05;;;-15.10;73.90;;;;;;5076758;28;20033;-81
2023/01/07 09:41:02;;;;;;;5.30;3.47;;;-15.40;74.50;;;;;;5072787;28;20070;-82
2023/01/07 09:44:05;;;;;;;8.23;4.90;;;-15.70;74.90;;;;;;5074219;28;20033;-81
2023/01/07 09:46:50;;;;;;;5.85;4.00;;;-16.30;74.60;;;;;;5076603;28;20054;-82
2023/01/07 09:49:53;;;;;;;8.23;4.40;;;-16.70;75.30;;;;;;5069138;28;20016;-82
2023/01/07 09:52:44;;;;;;;11.93;3.97;;;-17.10;76.30;;;;;;5073881;28;20028;-79
2023/01/07 09:55:47;;;;;;;7.75;4.38;;;-17.30;77.10;;;;;;5054941;28;20039;-81
2023/01/07 09:58:51;;;;;;;2.75;2.47;;;-17.40;77.90;;;;;;5064866;28;20070;-83
2023/01/07 10:01:54;;;;;;;11.10;4.07;;;-17.50;78.60;;;;;;5070568;28;20021;-80
2023/01/07 10:04:57;;;;;;;7.93;4.35;;;-17.50;79.30;;;;;;5036677;28;20048;-81
2023/01/07 10:08:00;;;;;;;12.90;5.35;;;-17.40;79.80;;;;;;5064306;28;20047;-82
2023/01/07 10:10:44;;;;;;;9.40;6.20;;;-17.30;80.20;;;;;;5077718;28;20032;-81
2023/01/07 10:13:47;;;;;;;13.25;5.18;;;-17.10;80.90;;;;;;5073919;28;20012;-83
2023/01/07 10:16:51;;;;;;;8.82;4.20;;;-16.20;82.90;;;;;;5058382;28;20497;-78
2023/01/07 10:19:54;;;;;;;5.32;4.13;;;-15.00;83.00;;;;;;5065520;28;20025;-78
2023/01/07 10:22:57;;;;;;;11.20;5.03;;;-13.60;83.30;;;;;;5050163;28;20036;-79
2023/01/07 10:26:00;;;;;;;11.10;5.40;;;-12.20;81.50;;;;;;5045882;28;20504;-79
2023/01/07 10:29:03;;;;;;;8.13;4.40;;;-10.90;79.90;;;;;;5073529;28;20453;-79
2023/01/07 10:31:29;;;;;;;11.00;5.55;;;-10.10;74.00;;;;;;5073455;28;20493;-78
2023/01/07 10:34:32;;;;;;;7.68;5.00;;;-10.30;70.00;;;;;;5072249;28;20055;-79
2023/01/07 10:37:36;;;;;;;20.20;8.85;;;-10.50;70.50;;;;;;5071980;28;20027;-79
2023/01/07 10:40:40;;;;;;;13.88;5.93;;;-11.30;67.70;;;;;;5054165;28;20032;-80
2023/01/07 10:43:46;;;;;;;15.27;5.90;;;-12.30;68.00;;;;;;5060376;28;20075;-78
2023/01/07 10:46:31;;;;;;;;;;;-13.10;68.80;;;;;;5063579;28;20559;-79
2023/01/07 10:49:34;;;;;;;11.82;5.22;;;-13.80;69.30;;;;;;5071956;28;19904;-79
2023/01/07 10:52:37;;;;;;;11.60;7.97;;;-14.40;70.00;;;;;;5072827;28;20032;-83
2023/01/07 10:55:40;;;;;;;16.25;7.55;;;-14.80;70.90;;;;;;5068584;28;20493;-78
2023/01/07 10:58:43;;;;;;;9.63;6.18;;;-15.20;71.50;;;;;;5070785;28;20519;-79
2023/01/07 11:01:46;;;;;;;11.52;5.28;;;-15.50;72.40;;;;;;5075506;28;20107;-79
2023/01/07 11:04:49;;;;;;;15.90;5.75;;;-15.70;73.40;;;;;;5074173;28;20040;-79
2023/01/07 11:07:52;;;;;;;13.05;6.70;;;-15.80;74.00;;;;;;5059794;28;20064;-79
2023/01/07 11:10:55;;;;;;;10.05;6.03;;;-15.90;74.40;;;;;;5072965;28;20382;-79
2023/01/07 11:13:59;;;;;;;10.13;4.63;;;-16.00;74.90;;;;;;5078678;28;20056;-78
2023/01/07 11:17:02;;;;;;;13.40;7.20;;;-16.10;75.40;;;;;;5090575;28;20019;-79
2023/01/07 11:20:00;;;;;;;14.20;9.95;;;-16.20;75.90;;;;;;5086514;28;20035;-79
2023/01/07 11:22:44;;;;;;;11.35;6.10;;;-16.30;76.30;;;;;;5030402;28;20036;-77
2023/01/07 11:25:48;;;;;;;12.52;6.93;;;-16.30;76.60;;;;;;5095576;28;20038;-80
2023/01/07 11:28:51;;;;;;;11.80;6.78;;;-16.40;77.20;;;;;;5093858;28;20717;-78
2023/01/07 11:31:18;;;;;;;6.90;4.40;;;-16.40;77.70;;;;;;5094772;28;20024;-79
2023/01/07 11:34:02;;;;;;;;;;;-16.50;77.90;;;;;;5070039;28;20016;-78
2023/01/07 11:37:05;;;;;;;18.67;8.88;;;-16.50;78.20;;;;;;5086891;28;19903;-79
2023/01/07 11:40:08;;;;;;;17.65;8.30;;;-16.60;78.30;;;;;;5072954;28;20322;-77
2023/01/07 11:43:12;;;;;;;13.43;8.40;;;-16.60;78.80;;;;;;5082254;28;20032;-81
2023/01/07 11:46:15;;;;;;;12.68;6.63;;;-16.70;79.20;;;;;;5081496;28;20040;-79
2023/01/07 11:49:18;;;;;;;11.85;5.93;;;-16.70;79.70;;;;;;5076134;28;20105;-78
2023/01/07 11:52:21;;;;;;;16.25;4.28;;;-16.80;80.00;;;;;;5086395;28;20028;-82
2023/01/07 11:55:24;;;;;;;6.55;3.35;;;-16.80;80.50;;;;;;5058128;28;20493;-79
2023/01/07 11:58:28;;;;;;;15.18;5.30;;;-16.80;81.30;;;;;;5082487;28;20099;-81
2023/01/07 12:01:31;;;;;;;10.25;6.60;;;-16.80;81.90;;;;;;5091808;28;20145;-79
2023/01/07 12:04:39;;;;;;;16.67;7.00;;;-16.80;82.20;;;;;;5091512;28;20077;-81
2023/01/07 12:07:42;;;;;;;16.73;7.75;;;-16.80;82.30;;;;;;5073014;28;20039;-80
2023/01/07 12:10:45;;;;;;;15.32;9.05;;;-16.80;82.50;;;;;;5064579;28;20036;-78
2023/01/07 12:13:48;;;;;;;6.10;4.60;;;-16.90;82.50;;;;;;5071934;28;20025;-85
2023/01/07 12:16:51;;;;;;;11.73;6.75;;;-16.90;83.00;;;;;;5069077;28;20043;-87
2023/01/07 12:19:54;;;;;;;16.05;7.90;;;-16.90;83.50;;;;;;5048491;28;20028;-88
2023/01/07 12:22:58;;;;;;;13.70;8.02;;;-16.90;83.80;;;;;;5055947;28;20024;-81
2023/01/07 12:26:02;;;;;;;21.00;8.88;;;-16.90;83.90;;;;;;5067678;28;20045;-79
2023/01/07 12:28:56;;;;;;;8.43;5.57;;;-16.90;84.10;;;;;;5072102;28;20041;-81
2023/01/07 12:31:47;;;;;;;6.88;5.25;;;-16.90;84.00;;;;;;5069490;28;20490;-80
2023/01/07 12:34:50;;;;;;;18.92;7.18;;;-16.90;84.30;;;;;;5074430;28;20410;-83
2023/01/07 12:37:56;;;;;;;10.82;3.55;;;-16.90;84.40;;;;;;5067234;28;20382;-80
2023/01/07 12:40:59;;;;;;;16.92;7.18;;;-17.00;84.50;;;;;;5037013;28;20017;-80
2023/01/07 12:44:02;;;;;;;15.15;5.50;;;-17.00;84.70;;;;;;5068082;28;20032;-79
2023/01/07 12:47:05;;;;;;;14.95;5.75;;;-17.00;85.00;;;;;;5073534;28;20570;-77
2023/01/07 12:49:56;;;;;;;19.02;7.35;;;-17.00;85.30;;;;;;5050209;28;20032;-78
2023/01/07 12:53:00;;;;;;;9.88;3.80;;;-17.00;85.50;;;;;;5072789;28;20538;-77
2023/01/07 12:55:50;;;;;;;11.48;6.45;;;-17.10;85.60;;;;;;5056536;28;20417;-77
2023/01/07 12:58:51;;;;;;;12.23;6.57;;;-17.10;85.90;;;;;;5063771;28;20391;-78
2023/01/07 13:01:54;;;;;;;8.10;5.63;;;-17.20;86.00;;;;;;4987074;28;20061;-81
2023/01/07 13:04:57;;;;;;;8.77;5.40;;;-17.20;86.10;;;;;;4963627;28;20552;-79
2023/01/07 13:07:46;;;;;;;5.10;2.97;;;-17.10;86.30;;;;;;4971681;28;20046;-80
2023/01/07 13:10:54;;;;;;;5.72;4.15;;;-17.10;86.50;;;;;;4966362;28;20604;-80
2023/01/07 13:13:40;;;;;;;24.58;10.35;;;-17.20;86.80;;;;;;4971193;28;20112;-80
2023/01/07 13:16:43;;;;;;;20.75;9.48;;;-17.10;87.00;;;;;;4973282;28;20472;-80
2023/01/07 13:19:46;;;;;;;22.77;8.90;;;-17.10;87.00;;;;;;4973933;28;20119;-80
2023/01/07 13:22:43;;;;;;;16.15;8.32;;;-17.20;87.20;;;;;;4972747;28;20031;-80
2023/01/07 13:25:48;;;;;;;6.00;3.72;;;-17.20;87.20;;;;;;4976835;28;20045;-80
2023/01/07 13:28:39;;;;;;;13.00;5.78;;;-17.20;87.50;;;;;;4971816;28;20039;-82
2023/01/07 13:31:34;;;;;;;11.60;7.68;;;-17.20;87.70;;;;;;4970039;28;20488;-80
2023/01/07 13:34:38;;;;;;;3.25;3.00;;;-17.20;87.90;;;;;;4972129;28;20027;-80
2023/01/07 13:37:42;;;;;;;14.55;7.60;;;-17.20;88.00;;;;;;5052893;28;20032;-81
2023/01/07 13:40:45;;;;;;;8.38;4.68;;;-17.30;88.30;;;;;;5066191;28;20100;-79
2023/01/07 13:43:51;;;;;;;9.15;5.85;;;-17.30;88.30;;;;;;5070115;28;20110;-79
2023/01/07 13:46:54;;;;;;;12.00;7.88;;;-17.30;88.10;;;;;;5064644;28;20032;-80
2023/01/07 13:49:57;;;;;;;26.95;8.60;;;-17.40;88.20;;;;;;5074173;28;20021;-80
2023/01/07 13:53:00;;;;;;;18.08;7.45;;;-17.40;88.30;;;;;;5051711;28;20478;-82